KHSB/HSB METAR and TAF weather

Enter ICAO airport designator
Station Type Date Time Source
KHSB METAR 2019/06/26 15:55 UTC NOAA

KHSB 261555Z AUTO 21003KT 10SM SCT024 SCT029 29/25 A3013 RMK AO2 T02930254


Station Type Date Time Source
KHSB Decoded METAR 2019/06/26 15:55 UTC NOAA

Harrisburg, Harrisburg-Raleigh Airport, IL, United States (KHSB) 37-48-41N 088-32-57W
Jun 26, 2019 - 11:55 AM EDT / 2019.06.26 1555 UTC
Wind: from the SSW (210 degrees) at 3 MPH (3 KT):0
Visibility: 10 mile(s):0
Sky conditions: partly cloudy
Temperature: 84.7 F (29.3 C)
Dew Point: 77.7 F (25.4 C)
Relative Humidity: 79%
Pressure (altimeter): 30.13 in. Hg (1020 hPa)
ob: KHSB 261555Z AUTO 21003KT 10SM SCT024 SCT029 29/25 A3013 RMK AO2 T02930254
cycle: 16

Station Type Date Time Source
KHSB TAF UTC NOAA

Error!

Example: see airport list